Terminal Aerodrome Forecast
Issued by NWS Brownsville, TX

Home | Current Version | Previous Version | Text Only | Print | Product List | Glossary On
Versions: 1 2 3 4 5 6 7 8 9 10 11 12 13 14 15 16 17 18 19 20 21 22 23 24
265
FTUS44 KBRO 201127
TAFHRL
TAF
KHRL 201127Z 2012/2112 23010KT P6SM VCTS OVC015CB
      TEMPO 2012/2014 VRB15G35KT 4SM TSRA OVC009CB
     FM201400 26011KT P6SM VCSH OVC025
     FM201800 33017G25KT P6SM BKN050
     FM210000 03008KT P6SM FEW250
     FM210400 VRB03KT P6SM SKC=

USA.gov is the U.S. government's official web portal to all federal, state and local government web resources and services.